Time;durP1;ratioP1;P1;durP2;ratioP2;P2;SDS_P1;SDS_P2;PMS_P1;PMS_P2;Temp;Humidity;BMP_temperature;BMP_pressure;BME280_temperature;BME280_humidity;BME280_pressure;Samples;Min_cycle;Max_cycle;Signal;HPM_P1;HPM_P2
2022/04/01 00:02:01;;;;;;;9.10;3.70;;;;;;;;;;5034864;28;20389;-52
2022/04/01 00:04:27;;;;;;;15.85;4.43;;;;;;;;;;5034804;28;20108;-51
2022/04/01 00:06:53;;;;;;;14.18;3.88;;;;;;;;;;5034031;28;20100;-47
2022/04/01 00:09:19;;;;;;;20.08;4.47;;;;;;;;;;5034472;28;20100;-52
2022/04/01 00:11:46;;;;;;;13.70;3.42;;;;;;;;;;5034298;28;20104;-50
2022/04/01 00:14:12;;;;;;;9.68;3.70;;;;;;;;;;5034250;28;20104;-51
2022/04/01 00:16:38;;;;;;;9.38;3.53;;;;;;;;;;5034301;28;20508;-48
2022/04/01 00:19:05;;;;;;;11.43;3.55;;;;;;;;;;5034585;28;20108;-50
2022/04/01 00:21:31;;;;;;;12.07;3.75;;;;;;;;;;5034222;28;20025;-52
2022/04/01 00:23:57;;;;;;;10.85;3.80;;;;;;;;;;5034363;28;20108;-49
2022/04/01 00:26:23;;;;;;;14.98;4.18;;;;;;;;;;5033825;28;20525;-50
2022/04/01 00:28:49;;;;;;;11.63;3.60;;;;;;;;;;5034326;28;20053;-53
2022/04/01 00:31:16;;;;;;;6.97;3.22;;;;;;;;;;5034399;28;20018;-51
2022/04/01 00:33:42;;;;;;;13.02;3.30;;;;;;;;;;5033641;28;20116;-52
2022/04/01 00:36:08;;;;;;;8.90;2.63;;;;;;;;;;5034188;28;20025;-50
2022/04/01 00:38:34;;;;;;;10.00;2.78;;;;;;;;;;5034015;28;20022;-49
2022/04/01 00:41:01;;;;;;;13.07;2.97;;;;;;;;;;5033744;28;20022;-49
2022/04/01 00:43:31;;;;;;;10.75;2.63;;;;;;;;;;5033619;28;20116;-52
2022/04/01 00:45:58;;;;;;;9.55;2.83;;;;;;;;;;5034276;28;20028;-50
2022/04/01 00:48:25;;;;;;;11.88;2.97;;;;;;;;;;5033761;28;20095;-51
2022/04/01 00:50:51;;;;;;;12.43;3.22;;;;;;;;;;5034055;28;20094;-48
2022/04/01 00:53:20;;;;;;;13.45;3.40;;;;;;;;;;5033554;28;20038;-53
2022/04/01 00:55:47;;;;;;;12.73;2.95;;;;;;;;;;5033883;28;20234;-52
2022/04/01 00:58:13;;;;;;;8.73;3.13;;;;;;;;;;5033587;28;20108;-52
2022/04/01 01:00:40;;;;;;;8.95;3.15;;;;;;;;;;5033856;28;20549;-49
2022/04/01 01:03:07;;;;;;;14.77;3.42;;;;;;;;;;5033538;28;20541;-50
2022/04/01 01:05:33;;;;;;;13.40;3.40;;;;;;;;;;5033466;28;20457;-54
2022/04/01 01:08:05;;;;;;;12.10;3.15;;;;;;;;;;5033517;28;20080;-52
2022/04/01 01:10:31;;;;;;;13.77;3.80;;;;;;;;;;5033444;28;20017;-50
2022/04/01 01:12:57;;;;;;;15.75;3.65;;;;;;;;;;5033644;28;20071;-53
2022/04/01 01:15:25;;;;;;;13.55;3.95;;;;;;;;;;5033402;28;20050;-52
2022/04/01 01:17:51;;;;;;;13.55;3.85;;;;;;;;;;5033543;28;20021;-48
2022/04/01 01:20:18;;;;;;;15.15;3.38;;;;;;;;;;5033746;28;20021;-48
2022/04/01 01:22:47;;;;;;;16.85;3.83;;;;;;;;;;5033267;28;20572;-48
2022/04/01 01:25:14;;;;;;;14.02;3.35;;;;;;;;;;5032317;28;20029;-52
2022/04/01 01:27:41;;;;;;;11.15;3.58;;;;;;;;;;5033268;28;20460;-50
2022/04/01 01:30:08;;;;;;;13.25;4.40;;;;;;;;;;5033096;28;20026;-49
2022/04/01 01:32:35;;;;;;;15.68;3.80;;;;;;;;;;5033628;28;20021;-50
2022/04/01 01:35:02;;;;;;;15.30;3.80;;;;;;;;;;5033069;28;20030;-54
2022/04/01 01:37:28;;;;;;;12.55;3.78;;;;;;;;;;5032846;28;20031;-48
2022/04/01 01:39:55;;;;;;;13.57;4.07;;;;;;;;;;5033201;28;20474;-55
2022/04/01 01:42:21;;;;;;;15.35;4.38;;;;;;;;;;5032988;28;20120;-52
2022/04/01 01:44:48;;;;;;;13.23;3.65;;;;;;;;;;5032985;28;20458;-52
2022/04/01 01:47:14;;;;;;;14.18;3.92;;;;;;;;;;5033328;28;20477;-52
2022/04/01 01:54:43;;;;;;;19.95;4.13;;;;;;;;;;5032805;28;20021;-51
2022/04/01 01:55:14;;;;;;;18.50;3.80;;;;;;;;;;5033321;28;20079;-50
2022/04/01 01:57:41;;;;;;;14.98;3.88;;;;;;;;;;5033059;28;20022;-54
2022/04/01 02:00:16;;;;;;;12.25;3.80;;;;;;;;;;5033229;28;20029;-49
2022/04/01 02:02:42;;;;;;;13.30;4.20;;;;;;;;;;5033669;28;20067;-51
2022/04/01 02:05:09;;;;;;;19.50;4.05;;;;;;;;;;5033201;28;20103;-52
2022/04/01 02:07:36;;;;;;;15.93;5.03;;;;;;;;;;5033200;28;20025;-52
2022/04/01 02:10:02;;;;;;;10.77;3.15;;;;;;;;;;5032815;28;20022;-52
2022/04/01 02:12:30;;;;;;;14.15;3.28;;;;;;;;;;5032740;28;20124;-54
2022/04/01 02:14:56;;;;;;;12.18;2.80;;;;;;;;;;5032705;28;20038;-53
2022/04/01 02:17:23;;;;;;;10.85;2.95;;;;;;;;;;5033104;28;20025;-52
2022/04/01 02:19:50;;;;;;;10.30;3.08;;;;;;;;;;5032469;28;20571;-51
2022/04/01 02:22:17;;;;;;;16.08;3.58;;;;;;;;;;5033045;28;20097;-51
2022/04/01 02:24:44;;;;;;;7.88;2.65;;;;;;;;;;5032672;28;20104;-49
2022/04/01 02:27:10;;;;;;;14.43;3.65;;;;;;;;;;5032304;28;20485;-50
2022/04/01 02:29:36;;;;;;;9.38;2.92;;;;;;;;;;5034855;28;20026;-51
2022/04/01 02:32:02;;;;;;;9.40;2.83;;;;;;;;;;5036144;28;20540;-54
2022/04/01 02:34:28;;;;;;;12.25;3.10;;;;;;;;;;5035983;28;20498;-55
2022/04/01 02:36:57;;;;;;;11.35;2.83;;;;;;;;;;5036190;28;20164;-57
2022/04/01 02:39:23;;;;;;;8.93;2.28;;;;;;;;;;5036426;28;20033;-53
2022/04/01 02:41:49;;;;;;;15.10;2.85;;;;;;;;;;5035851;28;20037;-51
2022/04/01 02:44:15;;;;;;;14.43;2.72;;;;;;;;;;5035960;28;20025;-53
2022/04/01 02:46:43;;;;;;;12.10;3.10;;;;;;;;;;5035515;28;20053;-51
2022/04/01 02:49:11;;;;;;;16.75;3.22;;;;;;;;;;5035972;28;20554;-55
2022/04/01 02:51:39;;;;;;;12.52;3.10;;;;;;;;;;5035977;28;20029;-54
2022/04/01 02:54:06;;;;;;;15.80;3.53;;;;;;;;;;5035716;28;20029;-52
2022/04/01 02:56:33;;;;;;;9.57;3.17;;;;;;;;;;5035855;28;20052;-56
2022/04/01 02:59:00;;;;;;;11.90;3.65;;;;;;;;;;5035548;28;20029;-51
2022/04/01 03:01:27;;;;;;;13.05;3.80;;;;;;;;;;5036055;28;20029;-52
2022/04/01 03:03:53;;;;;;;15.38;4.78;;;;;;;;;;5035797;28;20071;-55
2022/04/01 03:06:19;;;;;;;25.90;7.80;;;;;;;;;;5035560;28;20472;-55
2022/04/01 03:08:46;;;;;;;25.17;7.78;;;;;;;;;;5035522;28;20099;-54
2022/04/01 03:11:12;;;;;;;19.80;5.82;;;;;;;;;;5035803;28;20109;-55
2022/04/01 03:13:38;;;;;;;24.40;6.45;;;;;;;;;;5035751;28;20055;-53
2022/04/01 03:16:04;;;;;;;24.40;5.47;;;;;;;;;;5035091;28;20050;-54
2022/04/01 03:18:30;;;;;;;18.88;4.85;;;;;;;;;;5035362;28;20096;-55
2022/04/01 03:20:57;;;;;;;27.52;5.15;;;;;;;;;;5035680;28;20108;-52
2022/04/01 03:23:25;;;;;;;26.50;5.90;;;;;;;;;;5035241;28;20124;-52
2022/04/01 03:25:53;;;;;;;23.88;5.10;;;;;;;;;;5035124;28;20025;-54
2022/04/01 03:28:19;;;;;;;20.63;4.97;;;;;;;;;;5035372;28;20032;-51
2022/04/01 03:30:45;;;;;;;23.25;5.60;;;;;;;;;;5035142;28;20528;-54
2022/04/01 03:33:11;;;;;;;22.85;5.80;;;;;;;;;;5035036;28;20044;-55
2022/04/01 03:35:38;;;;;;;29.00;5.50;;;;;;;;;;5035061;28;20112;-55
2022/04/01 03:38:10;;;;;;;29.02;5.82;;;;;;;;;;5034792;28;20049;-51
2022/04/01 03:40:38;;;;;;;33.05;5.97;;;;;;;;;;5033631;28;20032;-55
2022/04/01 03:43:05;;;;;;;27.33;5.70;;;;;;;;;;5034428;28;20041;-54
2022/04/01 03:45:35;;;;;;;27.35;5.97;;;;;;;;;;5035011;28;20025;-52
2022/04/01 03:48:04;;;;;;;30.60;5.50;;;;;;;;;;5035089;28;20579;-55
2022/04/01 03:50:32;;;;;;;25.85;5.88;;;;;;;;;;5034407;28;20596;-53
2022/04/01 03:53:04;;;;;;;21.73;6.22;;;;;;;;;;5034832;28;20112;-51
2022/04/01 03:55:31;;;;;;;31.15;5.60;;;;;;;;;;5034952;28;20377;-50
2022/04/01 03:58:00;;;;;;;32.38;5.63;;;;;;;;;;5034059;28;20097;-53
2022/04/01 04:00:26;;;;;;;30.05;6.80;;;;;;;;;;5033658;28;20033;-55
2022/04/01 04:02:53;;;;;;;32.70;7.10;;;;;;;;;;5033347;28;20488;-48
2022/04/01 04:05:21;;;;;;;29.92;5.60;;;;;;;;;;5033724;28;20452;-50
2022/04/01 04:07:48;;;;;;;26.33;5.72;;;;;;;;;;5034008;28;20026;-51
2022/04/01 04:10:15;;;;;;;25.38;6.15;;;;;;;;;;5034184;28;20390;-51
2022/04/01 04:12:43;;;;;;;29.10;5.85;;;;;;;;;;5034123;28;20044;-50
2022/04/01 04:15:10;;;;;;;31.33;7.10;;;;;;;;;;5034275;28;20513;-51
2022/04/01 04:17:36;;;;;;;28.27;8.82;;;;;;;;;;5034456;28;20026;-53
2022/04/01 04:20:11;;;;;;;38.85;13.02;;;;;;;;;;5034624;28;20112;-49
2022/04/01 04:22:46;;;;;;;33.72;9.27;;;;;;;;;;5034376;28;20083;-52
2022/04/01 04:25:14;;;;;;;34.95;8.80;;;;;;;;;;5033733;28;20072;-51
2022/04/01 04:27:51;;;;;;;33.03;8.93;;;;;;;;;;5034323;28;20100;-53
2022/04/01 04:30:18;;;;;;;27.08;7.20;;;;;;;;;;5033823;28;20021;-50
2022/04/01 04:32:53;;;;;;;24.10;6.80;;;;;;;;;;5033518;28;20482;-52
2022/04/01 04:35:21;;;;;;;25.23;6.28;;;;;;;;;;5033411;28;20152;-50
2022/04/01 04:37:47;;;;;;;28.85;6.97;;;;;;;;;;5032876;28;20103;-52
2022/04/01 04:40:17;;;;;;;33.72;6.85;;;;;;;;;;5032467;28;20091;-54
2022/04/01 04:42:45;;;;;;;33.65;7.15;;;;;;;;;;5032675;28;20104;-54
2022/04/01 04:45:12;;;;;;;27.15;7.63;;;;;;;;;;5040934;28;20018;-49
2022/04/01 04:47:42;;;;;;;36.95;7.93;;;;;;;;;;5043322;28;20029;-49
2022/04/01 04:50:08;;;;;;;24.63;6.57;;;;;;;;;;5033088;28;20391;-50
2022/04/01 04:52:35;;;;;;;31.80;7.93;;;;;;;;;;5033712;28;20120;-49
2022/04/01 04:55:08;;;;;;;34.80;7.70;;;;;;;;;;5033402;28;20036;-53
2022/04/01 04:57:35;;;;;;;40.90;8.55;;;;;;;;;;5033810;28;20030;-57
2022/04/01 05:00:01;;;;;;;38.78;8.88;;;;;;;;;;5033193;28;20056;-51
2022/04/01 05:02:46;;;;;;;38.22;10.13;;;;;;;;;;5033388;28;20529;-50
2022/04/01 05:05:31;;;;;;;44.78;9.48;;;;;;;;;;5032653;28;20104;-51
2022/04/01 05:08:06;;;;;;;42.42;9.07;;;;;;;;;;5031245;28;20096;-49
2022/04/01 05:10:42;;;;;;;30.35;9.15;;;;;;;;;;5032606;28;20025;-52
2022/04/01 05:13:20;;;;;;;30.65;8.98;;;;;;;;;;5032760;28;20034;-49
2022/04/01 05:15:51;;;;;;;34.83;8.88;;;;;;;;;;5033168;28;20041;-50
2022/04/01 05:18:17;;;;;;;;;;;;;;;;;;5033334;28;20025;-52
2022/04/01 05:20:52;;;;;;;34.47;7.90;;;;;;;;;;5033234;28;19905;-55
2022/04/01 05:23:27;;;;;;;38.35;9.38;;;;;;;;;;5034424;28;20108;-49
2022/04/01 05:25:58;;;;;;;32.60;9.05;;;;;;;;;;5033777;28;20018;-52
2022/04/01 05:28:25;;;;;;;33.15;10.77;;;;;;;;;;5033387;28;20028;-52
2022/04/01 05:31:18;;;;;;;37.80;9.70;;;;;;;;;;5033296;28;20109;-51
2022/04/01 05:33:54;;;;;;;33.28;8.75;;;;;;;;;;5031395;28;20042;-51
2022/04/01 05:36:22;;;;;;;39.78;9.18;;;;;;;;;;5033304;28;20032;-56
2022/04/01 05:38:48;;;;;;;46.33;11.05;;;;;;;;;;5033208;28;20072;-55
2022/04/01 05:41:17;;;;;;;39.05;11.90;;;;;;;;;;5033180;28;20032;-52
2022/04/01 05:43:46;;;;;;;34.58;7.78;;;;;;;;;;5033077;28;20017;-54
2022/04/01 05:46:12;;;;;;;38.00;9.32;;;;;;;;;;5033095;28;20041;-50
2022/04/01 05:48:39;;;;;;;40.10;11.23;;;;;;;;;;5033153;28;20017;-49
2022/04/01 05:51:06;;;;;;;29.38;8.60;;;;;;;;;;5033667;28;20022;-48
2022/04/01 05:53:34;;;;;;;41.30;12.68;;;;;;;;;;5036083;28;20543;-52
2022/04/01 05:56:01;;;;;;;47.85;13.85;;;;;;;;;;5052781;28;20341;-49
2022/04/01 05:58:27;;;;;;;47.60;12.68;;;;;;;;;;5052306;28;20092;-51
2022/04/01 06:01:04;;;;;;;38.50;10.77;;;;;;;;;;5052798;28;20071;-49
2022/04/01 06:03:30;;;;;;;41.55;10.27;;;;;;;;;;5052295;28;20449;-50
2022/04/01 06:06:01;;;;;;;33.25;8.55;;;;;;;;;;5056705;28;20018;-49
2022/04/01 06:08:48;;;;;;;35.78;8.30;;;;;;;;;;5056358;28;20048;-53
2022/04/01 06:11:20;;;;;;;39.70;7.32;;;;;;;;;;5055469;28;20393;-53
2022/04/01 06:13:55;;;;;;;37.17;8.32;;;;;;;;;;5056642;28;20091;-54
2022/04/01 06:16:37;;;;;;;36.58;8.52;;;;;;;;;;5056227;28;20083;-56
2022/04/01 06:19:15;;;;;;;40.15;10.50;;;;;;;;;;5057336;28;20402;-54
2022/04/01 06:21:44;;;;;;;37.42;8.43;;;;;;;;;;5056708;28;20028;-50
2022/04/01 06:24:11;;;;;;;29.75;8.02;;;;;;;;;;5056361;28;20102;-52
2022/04/01 06:26:48;;;;;;;35.15;8.82;;;;;;;;;;5056972;28;20428;-54
2022/04/01 06:29:21;;;;;;;36.97;9.43;;;;;;;;;;5056675;28;20527;-49
2022/04/01 06:31:53;;;;;;;42.70;10.63;;;;;;;;;;5056325;28;20112;-55
2022/04/01 06:34:23;;;;;;;41.88;9.65;;;;;;;;;;5056494;28;20029;-54
2022/04/01 06:36:54;;;;;;;50.17;12.20;;;;;;;;;;5056529;28;20028;-53
2022/04/01 06:39:39;;;;;;;50.60;16.67;;;;;;;;;;5056517;28;20025;-54
2022/04/01 06:42:06;;;;;;;47.03;12.65;;;;;;;;;;5056180;28;20032;-48
2022/04/01 06:44:32;;;;;;;36.50;11.02;;;;;;;;;;5056348;28;20021;-50
2022/04/01 06:46:59;;;;;;;38.38;12.90;;;;;;;;;;5056034;28;20025;-48
2022/04/01 06:49:25;;;;;;;51.72;13.10;;;;;;;;;;5056382;28;20474;-54
2022/04/01 06:51:51;;;;;;;42.67;9.95;;;;;;;;;;5055857;28;20083;-52
2022/04/01 06:54:17;;;;;;;44.30;10.60;;;;;;;;;;5055840;28;20021;-54
2022/04/01 06:56:44;;;;;;;50.20;12.18;;;;;;;;;;5056106;28;20021;-54
2022/04/01 06:59:10;;;;;;;42.97;10.60;;;;;;;;;;5055387;28;20013;-51
2022/04/01 07:01:38;;;;;;;49.95;12.52;;;;;;;;;;5055677;28;20025;-54
2022/04/01 07:04:04;;;;;;;37.83;9.00;;;;;;;;;;5055951;28;20029;-51
2022/04/01 07:06:30;;;;;;;44.92;10.18;;;;;;;;;;5055585;28;20025;-50
2022/04/01 07:08:57;;;;;;;45.70;9.23;;;;;;;;;;5056133;28;20112;-56
2022/04/01 07:11:23;;;;;;;57.15;9.55;;;;;;;;;;5055477;28;20025;-52
2022/04/01 07:13:49;;;;;;;32.63;7.30;;;;;;;;;;5055410;28;20033;-54
2022/04/01 07:16:15;;;;;;;36.35;9.30;;;;;;;;;;5055460;28;20075;-54
2022/04/01 07:18:41;;;;;;;38.10;6.90;;;;;;;;;;5055620;28;20074;-53
2022/04/01 07:21:08;;;;;;;18.85;3.90;;;;;;;;;;5055424;28;20013;-53
2022/04/01 07:23:35;;;;;;;14.93;3.70;;;;;;;;;;5055518;28;20029;-51
2022/04/01 07:26:01;;;;;;;24.67;4.95;;;;;;;;;;5055708;28;20122;-50
2022/04/01 07:28:28;;;;;;;22.08;5.70;;;;;;;;;;5055570;28;20025;-52
2022/04/01 07:30:55;;;;;;;25.40;6.63;;;;;;;;;;5055483;28;20029;-48
2022/04/01 07:33:21;;;;;;;27.35;6.30;;;;;;;;;;5055093;28;20037;-51
2022/04/01 07:35:48;;;;;;;29.25;6.45;;;;;;;;;;5055418;28;20104;-53
2022/04/01 07:38:15;;;;;;;24.50;5.13;;;;;;;;;;5055908;28;20107;-51
2022/04/01 07:40:42;;;;;;;20.73;4.97;;;;;;;;;;5055274;28;20049;-57
2022/04/01 07:43:09;;;;;;;24.42;7.50;;;;;;;;;;5055240;28;20106;-53
2022/04/01 07:45:37;;;;;;;23.90;6.15;;;;;;;;;;5055316;28;20068;-52
2022/04/01 07:48:03;;;;;;;25.17;5.13;;;;;;;;;;5054863;28;20082;-53
2022/04/01 07:50:29;;;;;;;30.40;8.23;;;;;;;;;;5054831;28;20028;-56
2022/04/01 07:52:56;;;;;;;30.40;8.10;;;;;;;;;;5055117;28;20123;-55
2022/04/01 07:55:23;;;;;;;20.30;5.70;;;;;;;;;;5054375;28;20025;-53
2022/04/01 07:57:50;;;;;;;20.95;5.32;;;;;;;;;;5054623;28;20424;-51
2022/04/01 08:00:17;;;;;;;20.45;5.05;;;;;;;;;;5054837;28;20031;-56
2022/04/01 08:02:43;;;;;;;27.27;4.55;;;;;;;;;;5054497;28;20079;-53
2022/04/01 08:05:09;;;;;;;27.23;5.88;;;;;;;;;;5054755;28;20484;-50
2022/04/01 08:07:36;;;;;;;22.70;5.63;;;;;;;;;;5054758;28;20060;-48
2022/04/01 08:10:04;;;;;;;27.00;4.53;;;;;;;;;;5054452;28;20055;-53
2022/04/01 08:12:33;;;;;;;16.50;3.10;;;;;;;;;;5054363;28;20029;-54
2022/04/01 08:14:59;;;;;;;22.67;4.35;;;;;;;;;;5054480;28;20523;-51
2022/04/01 08:17:25;;;;;;;23.05;3.92;;;;;;;;;;5054021;28;20418;-52
2022/04/01 08:19:51;;;;;;;23.45;4.35;;;;;;;;;;5054517;28;20025;-52
2022/04/01 08:22:18;;;;;;;25.67;4.57;;;;;;;;;;5054197;28;20040;-54
2022/04/01 08:24:44;;;;;;;21.40;3.67;;;;;;;;;;5054677;28;20092;-54
2022/04/01 08:27:11;;;;;;;20.15;4.07;;;;;;;;;;5053554;28;20473;-54
2022/04/01 08:29:38;;;;;;;16.63;4.03;;;;;;;;;;5053953;28;20032;-53
2022/04/01 08:32:07;;;;;;;17.40;3.47;;;;;;;;;;5053836;28;20033;-51
2022/04/01 08:34:34;;;;;;;16.67;3.63;;;;;;;;;;5054358;28;20025;-50
2022/04/01 08:37:00;;;;;;;21.08;3.90;;;;;;;;;;5053630;28;20021;-47
2022/04/01 08:39:27;;;;;;;25.67;3.58;;;;;;;;;;5054254;28;20060;-50
2022/04/01 08:41:54;;;;;;;17.60;3.03;;;;;;;;;;5054430;28;20060;-52
2022/04/01 08:44:20;;;;;;;16.58;3.22;;;;;;;;;;5053844;28;20079;-51
2022/04/01 08:46:46;;;;;;;19.02;3.53;;;;;;;;;;5054587;28;20036;-51
2022/04/01 08:49:12;;;;;;;19.15;3.33;;;;;;;;;;5053978;28;20032;-48
2022/04/01 08:51:39;;;;;;;14.25;3.75;;;;;;;;;;5053468;28;20167;-47
2022/04/01 08:54:06;;;;;;;14.63;3.88;;;;;;;;;;5053382;28;20025;-53
2022/04/01 08:56:32;;;;;;;18.13;3.53;;;;;;;;;;5053931;28;20021;-53
2022/04/01 08:58:58;;;;;;;17.27;3.63;;;;;;;;;;5052682;28;20043;-53
2022/04/01 09:01:24;;;;;;;16.10;2.67;;;;;;;;;;5052828;28;20032;-52
2022/04/01 09:03:50;;;;;;;14.15;2.83;;;;;;;;;;5053836;28;20500;-54
2022/04/01 09:06:19;;;;;;;14.82;2.78;;;;;;;;;;5053523;28;20104;-51
2022/04/01 09:08:45;;;;;;;10.70;2.20;;;;;;;;;;5054092;28;20342;-53
2022/04/01 09:11:19;;;;;;;14.27;3.00;;;;;;;;;;5053717;28;20024;-55
2022/04/01 09:13:51;;;;;;;10.82;2.33;;;;;;;;;;5053938;28;20040;-55
2022/04/01 09:16:36;;;;;;;8.70;2.33;;;;;;;;;;5053138;28;20052;-53
2022/04/01 09:19:08;;;;;;;10.75;2.20;;;;;;;;;;5053275;28;20048;-54
2022/04/01 09:21:41;;;;;;;10.95;2.47;;;;;;;;;;5053349;28;20083;-54
2022/04/01 09:24:10;;;;;;;12.00;2.78;;;;;;;;;;5053257;28;20477;-50
2022/04/01 09:26:38;;;;;;;12.52;2.70;;;;;;;;;;5052390;28;20029;-53
2022/04/01 09:29:10;;;;;;;19.25;2.88;;;;;;;;;;5053625;28;20025;-50
2022/04/01 09:31:37;;;;;;;11.60;2.88;;;;;;;;;;5054169;28;20345;-50
2022/04/01 09:34:06;;;;;;;8.82;2.22;;;;;;;;;;5052699;28;20031;-53
2022/04/01 09:36:33;;;;;;;13.70;2.35;;;;;;;;;;5053250;28;20064;-52
2022/04/01 09:39:13;;;;;;;6.07;2.13;;;;;;;;;;5054304;28;20025;-55
2022/04/01 09:41:43;;;;;;;8.82;2.78;;;;;;;;;;5057165;28;20029;-54
2022/04/01 09:44:12;;;;;;;9.67;1.67;;;;;;;;;;5057066;28;20024;-55
2022/04/01 09:46:46;;;;;;;11.45;2.08;;;;;;;;;;5057429;28;20234;-51
2022/04/01 09:49:13;;;;;;;10.20;2.08;;;;;;;;;;5057931;28;20415;-53
2022/04/01 09:51:44;;;;;;;8.43;2.38;;;;;;;;;;5057562;28;20116;-53
2022/04/01 09:54:11;;;;;;;12.48;2.08;;;;;;;;;;5056879;28;20033;-54
2022/04/01 09:56:42;;;;;;;10.70;2.72;;;;;;;;;;5046961;28;20020;-56
2022/04/01 09:59:08;;;;;;;6.63;1.67;;;;;;;;;;5046067;28;20497;-56
2022/04/01 10:01:36;;;;;;;8.48;2.00;;;;;;;;;;5044651;28;20024;-54
2022/04/01 10:04:02;;;;;;;5.95;2.00;;;;;;;;;;5046688;28;20039;-54
2022/04/01 10:06:30;;;;;;;6.53;2.10;;;;;;;;;;5046058;28;20013;-54
2022/04/01 10:08:57;;;;;;;9.38;1.90;;;;;;;;;;5043791;28;20112;-55
2022/04/01 10:11:23;;;;;;;3.17;1.65;;;;;;;;;;5046383;28;20100;-53
2022/04/01 10:13:50;;;;;;;3.17;1.02;;;;;;;;;;5045739;28;20025;-52
2022/04/01 10:16:17;;;;;;;5.43;2.10;;;;;;;;;;5036921;28;20491;-56
2022/04/01 10:18:47;;;;;;;7.28;1.40;;;;;;;;;;5036496;28;20382;-54
2022/04/01 10:21:15;;;;;;;4.32;1.38;;;;;;;;;;5036466;28;20072;-50
2022/04/01 10:23:48;;;;;;;5.45;1.30;;;;;;;;;;5036686;28;20104;-51
2022/04/01 10:26:16;;;;;;;5.25;1.58;;;;;;;;;;5036519;28;20359;-49
2022/04/01 10:28:47;;;;;;;7.40;1.75;;;;;;;;;;5036372;28;20018;-48
2022/04/01 10:31:14;;;;;;;8.93;2.05;;;;;;;;;;5036809;28;20037;-50
2022/04/01 10:33:40;;;;;;;8.55;1.63;;;;;;;;;;5036694;28;20088;-53
2022/04/01 10:36:16;;;;;;;7.65;1.92;;;;;;;;;;5035933;28;20117;-54
2022/04/01 10:38:43;;;;;;;7.75;1.65;;;;;;;;;;5036515;28;20370;-54
2022/04/01 10:41:12;;;;;;;5.15;1.52;;;;;;;;;;5036404;28;20025;-56
2022/04/01 10:43:40;;;;;;;7.95;2.00;;;;;;;;;;5036036;28;20070;-52
2022/04/01 10:46:08;;;;;;;6.00;1.83;;;;;;;;;;5036329;28;20158;-51
2022/04/01 10:51:36;;;;;;;7.20;1.83;;;;;;;;;;5035322;28;20037;-52
2022/04/01 10:54:06;;;;;;;8.70;2.42;;;;;;;;;;5036236;28;20466;-51
2022/04/01 10:56:34;;;;;;;4.10;1.27;;;;;;;;;;5035460;28;20516;-51
2022/04/01 10:59:03;;;;;;;4.45;1.38;;;;;;;;;;5034781;28;20021;-49
2022/04/01 11:01:30;;;;;;;5.05;1.35;;;;;;;;;;5035789;28;20033;-53
2022/04/01 11:04:14;;;;;;;8.25;1.38;;;;;;;;;;5035681;28;20025;-52
2022/04/01 11:06:51;;;;;;;5.35;1.70;;;;;;;;;;5035737;28;20026;-51
2022/04/01 11:09:32;;;;;;;5.60;1.30;;;;;;;;;;5035423;28;20477;-49
2022/04/01 11:11:58;;;;;;;;;;;;;;;;;;5035917;28;20112;-51
2022/04/01 11:14:24;;;;;;;3.40;1.15;;;;;;;;;;5034896;28;20285;-56
2022/04/01 11:16:51;;;;;;;5.57;1.30;;;;;;;;;;5035318;28;20191;-51
2022/04/01 11:19:25;;;;;;;3.55;1.55;;;;;;;;;;5034976;28;20559;-53
2022/04/01 11:21:51;;;;;;;4.60;1.33;;;;;;;;;;5035438;28;20079;-53
2022/04/01 11:24:22;;;;;;;5.22;1.92;;;;;;;;;;5035209;28;20113;-54
2022/04/01 11:26:48;;;;;;;4.60;1.50;;;;;;;;;;5034487;28;20109;-53
2022/04/01 11:29:18;;;;;;;4.18;1.40;;;;;;;;;;5034977;28;20036;-50
2022/04/01 11:31:44;;;;;;;5.97;1.53;;;;;;;;;;5034564;28;20028;-53
2022/04/01 11:34:11;;;;;;;4.78;1.52;;;;;;;;;;5035068;28;20028;-57
2022/04/01 11:36:37;;;;;;;4.78;1.83;;;;;;;;;;5034626;28;20490;-53
2022/04/01 11:39:05;;;;;;;9.40;2.80;;;;;;;;;;5034897;28;20022;-53
2022/04/01 11:41:44;;;;;;;4.43;1.30;;;;;;;;;;5035266;28;20112;-54
2022/04/01 11:44:10;;;;;;;5.63;1.50;;;;;;;;;;5035309;28;20022;-53
2022/04/01 11:46:37;;;;;;;6.20;2.10;;;;;;;;;;5034958;28;20102;-53
2022/04/01 11:49:03;;;;;;;6.38;2.10;;;;;;;;;;5034934;28;20017;-52
2022/04/01 11:51:29;;;;;;;4.85;1.40;;;;;;;;;;5034981;28;20136;-55
2022/04/01 11:53:56;;;;;;;4.80;1.30;;;;;;;;;;5034606;28;20056;-52
2022/04/01 11:56:24;;;;;;;5.35;1.60;;;;;;;;;;5034495;28;20374;-56
2022/04/01 11:58:58;;;;;;;8.10;1.60;;;;;;;;;;5035105;28;20478;-55
2022/04/01 12:01:26;;;;;;;4.93;1.20;;;;;;;;;;5033349;28;20021;-56
2022/04/01 12:04:03;;;;;;;5.55;1.77;;;;;;;;;;5034512;28;20083;-48
2022/04/01 12:09:14;;;;;;;5.40;1.30;;;;;;;;;;5034647;28;20496;-53
2022/04/01 12:11:48;;;;;;;5.07;1.38;;;;;;;;;;5034761;28;20028;-52
2022/04/01 12:14:23;;;;;;;6.32;1.42;;;;;;;;;;5034413;28;20100;-56
2022/04/01 12:16:49;;;;;;;6.05;1.23;;;;;;;;;;5034234;28;20160;-52
2022/04/01 12:19:20;;;;;;;10.02;3.15;;;;;;;;;;5034255;28;20029;-51
2022/04/01 12:21:50;;;;;;;7.50;3.10;;;;;;;;;;5034187;28;20052;-52
2022/04/01 12:24:17;;;;;;;8.82;2.72;;;;;;;;;;5033968;28;20470;-54
2022/04/01 12:26:44;;;;;;;9.32;3.00;;;;;;;;;;5034073;28;20053;-57
2022/04/01 12:29:26;;;;;;;6.43;1.77;;;;;;;;;;5033035;28;20370;-56
2022/04/01 12:31:54;;;;;;;5.28;2.17;;;;;;;;;;5034120;28;20024;-55
2022/04/01 12:34:20;;;;;;;2.85;1.35;;;;;;;;;;5033115;28;20025;-54
2022/04/01 12:36:52;;;;;;;8.90;2.15;;;;;;;;;;5033479;28;20108;-49
2022/04/01 12:39:18;;;;;;;6.70;1.80;;;;;;;;;;5034170;28;20102;-55
2022/04/01 12:41:52;;;;;;;12.90;2.15;;;;;;;;;;5033316;28;20033;-54
2022/04/01 12:44:22;;;;;;;8.38;1.60;;;;;;;;;;5033888;28;20104;-54
2022/04/01 12:46:49;;;;;;;4.60;1.48;;;;;;;;;;5033495;28;20101;-53
2022/04/01 12:49:16;;;;;;;3.97;1.50;;;;;;;;;;5033654;28;20018;-51
2022/04/01 12:51:54;;;;;;;3.42;1.45;;;;;;;;;;5033871;28;20025;-51
2022/04/01 12:54:33;;;;;;;5.82;1.50;;;;;;;;;;5033914;28;20030;-56
2022/04/01 12:57:05;;;;;;;3.08;1.30;;;;;;;;;;5033516;28;20033;-54
2022/04/01 12:59:38;;;;;;;4.50;1.42;;;;;;;;;;5033700;28;20474;-53
2022/04/01 13:02:09;;;;;;;4.68;1.70;;;;;;;;;;5034199;28;20112;-55
2022/04/01 13:04:39;;;;;;;5.20;1.73;;;;;;;;;;5033230;28;20022;-51
2022/04/01 13:07:07;;;;;;;6.15;2.28;;;;;;;;;;5033786;28;20084;-53
2022/04/01 13:09:43;;;;;;;5.75;2.03;;;;;;;;;;5033865;28;20026;-50
2022/04/01 13:12:09;;;;;;;6.38;2.00;;;;;;;;;;5033294;28;20041;-54
2022/04/01 13:14:35;;;;;;;7.20;2.38;;;;;;;;;;5033598;28;20021;-52
2022/04/01 13:17:09;;;;;;;2.13;1.30;;;;;;;;;;5033757;28;20132;-54
2022/04/01 13:19:37;;;;;;;3.75;1.10;;;;;;;;;;5033262;28;20380;-57
2022/04/01 13:22:07;;;;;;;2.10;1.05;;;;;;;;;;5033356;28;20351;-53
2022/04/01 13:24:33;;;;;;;5.50;1.33;;;;;;;;;;5033317;28;20105;-54
2022/04/01 13:27:00;;;;;;;2.42;1.27;;;;;;;;;;5033587;28;20026;-52
2022/04/01 13:29:27;;;;;;;2.38;1.10;;;;;;;;;;5033147;28;20025;-55
2022/04/01 13:31:55;;;;;;;2.70;1.17;;;;;;;;;;5033180;28;20022;-55
2022/04/01 13:34:21;;;;;;;3.50;1.30;;;;;;;;;;5033130;28;20021;-54
2022/04/01 13:36:51;;;;;;;2.42;1.55;;;;;;;;;;5033039;28;20537;-52
2022/04/01 13:39:18;;;;;;;7.05;3.05;;;;;;;;;;5032803;28;20084;-55
2022/04/01 13:41:44;;;;;;;6.93;2.88;;;;;;;;;;5033710;28;20031;-56
2022/04/01 13:44:11;;;;;;;5.75;3.53;;;;;;;;;;5037615;28;20044;-52
2022/04/01 13:46:37;;;;;;;7.55;3.60;;;;;;;;;;5052518;28;20458;-53
2022/04/01 13:49:05;;;;;;;6.40;2.17;;;;;;;;;;5052419;28;20167;-55
2022/04/01 13:51:31;;;;;;;2.55;1.23;;;;;;;;;;5051738;28;20028;-51
2022/04/01 13:53:57;;;;;;;1.48;0.93;;;;;;;;;;5053117;28;20466;-56
2022/04/01 13:56:24;;;;;;;0.85;0.50;;;;;;;;;;5053229;28;20108;-54
2022/04/01 13:58:50;;;;;;;2.47;0.82;;;;;;;;;;5052958;28;20020;-53
2022/04/01 14:01:17;;;;;;;3.97;1.60;;;;;;;;;;5052410;28;20021;-57
2022/04/01 14:03:43;;;;;;;6.40;3.53;;;;;;;;;;5053756;28;20104;-56
2022/04/01 14:06:09;;;;;;;2.72;1.63;;;;;;;;;;5052743;28;20056;-55
2022/04/01 14:08:36;;;;;;;4.95;1.58;;;;;;;;;;5052989;28;20025;-55
2022/04/01 14:11:03;;;;;;;1.77;1.30;;;;;;;;;;5052995;28;20100;-55
2022/04/01 14:13:29;;;;;;;2.25;1.00;;;;;;;;;;5052648;28;20083;-53
2022/04/01 14:15:55;;;;;;;1.33;0.90;;;;;;;;;;5053285;28;20152;-53
2022/04/01 14:18:22;;;;;;;2.30;0.65;;;;;;;;;;5052735;28;20092;-54
2022/04/01 14:20:49;;;;;;;0.93;0.60;;;;;;;;;;5052715;28;20029;-54
2022/04/01 14:23:15;;;;;;;1.30;0.70;;;;;;;;;;5053053;28;20021;-53
2022/04/01 14:25:44;;;;;;;1.52;0.70;;;;;;;;;;5054871;28;20021;-52
2022/04/01 14:28:11;;;;;;;3.67;1.58;;;;;;;;;;5056113;28;20024;-52
2022/04/01 14:30:38;;;;;;;1.55;1.08;;;;;;;;;;5056883;28;20025;-55
2022/04/01 14:33:04;;;;;;;1.77;0.90;;;;;;;;;;5056431;28;20116;-52
2022/04/01 14:35:30;;;;;;;3.25;1.40;;;;;;;;;;5056162;28;20028;-55
2022/04/01 14:37:57;;;;;;;3.22;2.00;;;;;;;;;;5056660;28;20025;-52
2022/04/01 14:40:24;;;;;;;2.38;1.40;;;;;;;;;;5056107;28;20525;-51
2022/04/01 14:42:51;;;;;;;3.22;1.33;;;;;;;;;;5056332;28;20029;-52
2022/04/01 14:45:17;;;;;;;2.10;0.80;;;;;;;;;;5056235;28;20024;-55
2022/04/01 14:47:44;;;;;;;1.52;0.70;;;;;;;;;;5055733;28;20418;-51
2022/04/01 14:50:10;;;;;;;3.17;0.90;;;;;;;;;;5056457;28;20060;-52